Terminal Aerodrome Forecast
Issued by NWS

Home | Current Version | Previous Version | Text Only | Print | Product List | Glossary On
Versions: 1 2 3 4 5 6 7 8 9 10 11 12 13 14 15 16 17 18 19 20 21
361
FTUS43 KMPX 261727
TAFAXN
TAF
KAXN 261727Z 2618/2718 30012G18KT P6SM SCT007 OVC015
      TEMPO 2618/2620 BKN007 OVC015
     FM262200 30012KT P6SM SCT015 BKN022
     FM270200 30007KT P6SM SCT007 BKN015
     FM270600 28005KT 3SM BR BKN007
     FM271400 25007KT P6SM SCT020=

USA.gov is the U.S. government's official web portal to all federal, state and local government web resources and services.